createdAt,value
2023-05-09T00:02:35.081Z,51.09
2023-05-09T00:07:38.042Z,51.20
2023-05-09T00:12:42.173Z,50.79
2023-05-09T00:17:46.380Z,50.47
2023-05-09T00:22:49.237Z,50.18
2023-05-09T00:27:52.005Z,48.98
2023-05-09T00:32:54.983Z,46.55
2023-05-09T00:37:57.763Z,44.48
2023-05-09T00:43:00.916Z,43.64
2023-05-09T00:48:03.975Z,42.96
2023-05-09T00:53:06.985Z,42.27
2023-05-09T00:58:09.977Z,41.72
2023-05-09T01:03:13.003Z,40.66
2023-05-09T01:08:30.453Z,40.05
2023-05-09T01:13:33.251Z,39.42
2023-05-09T01:18:41.362Z,39.83
2023-05-09T01:23:53.180Z,40.17
2023-05-09T01:29:19.271Z,40.10
2023-05-09T01:34:23.405Z,39.74
2023-05-09T01:39:27.698Z,39.13
2023-05-09T01:44:36.338Z,38.38
2023-05-09T01:49:40.777Z,38.32
2023-05-09T01:54:45.503Z,37.25
2023-05-09T01:59:49.472Z,36.46
2023-05-09T02:04:54.127Z,36.31
2023-05-09T02:09:59.965Z,35.52
2023-05-09T02:15:02.461Z,34.66
2023-05-09T02:20:10.344Z,34.26
2023-05-09T02:25:15.979Z,34.27
2023-05-09T02:30:24.752Z,34.57
2023-05-09T02:35:29.606Z,34.81
2023-05-09T02:40:36.724Z,35.30
2023-05-09T02:45:39.617Z,35.48
2023-05-09T02:50:43.840Z,35.27
2023-05-09T02:55:46.956Z,34.67
2023-05-09T03:00:49.793Z,33.72
2023-05-09T03:05:52.677Z,32.36
2023-05-09T03:10:55.726Z,31.66
2023-05-09T03:16:00.214Z,30.95
2023-05-09T03:21:03.323Z,30.18
2023-05-09T03:26:07.401Z,30.55
2023-05-09T03:31:12.036Z,30.49
2023-05-09T03:36:15.140Z,30.81
2023-05-09T03:41:19.791Z,30.29
2023-05-09T03:46:24.141Z,30.96
2023-05-09T03:51:27.435Z,31.58
2023-05-09T03:56:32.276Z,31.76
2023-05-09T04:01:35.408Z,31.64
2023-05-09T04:06:39.723Z,31.46
2023-05-09T04:11:45.240Z,31.68
2023-05-09T04:16:49.351Z,31.03
2023-05-09T04:21:52.554Z,30.42
2023-05-09T04:26:55.524Z,30.19
2023-05-09T04:32:02.521Z,30.93
2023-05-09T04:37:06.010Z,30.90
2023-05-09T04:42:11.213Z,31.23
2023-05-09T04:47:14.147Z,30.17
2023-05-09T04:52:18.188Z,29.90
2023-05-09T04:57:21.513Z,29.22
2023-05-09T05:02:30.058Z,28.86
2023-05-09T05:07:32.870Z,28.88
2023-05-09T05:12:36.187Z,28.63
2023-05-09T05:17:40.571Z,28.99
2023-05-09T05:22:45.283Z,28.92
2023-05-09T05:27:48.636Z,29.01
2023-05-09T05:32:52.041Z,28.82
2023-05-09T05:37:56.775Z,28.45
2023-05-09T05:43:01.114Z,28.18
2023-05-09T05:48:04.750Z,28.66
2023-05-09T05:53:08.326Z,28.44
2023-05-09T05:58:11.393Z,28.42
2023-05-09T06:03:15.066Z,27.95
2023-05-09T06:08:23.256Z,27.92
2023-05-09T06:13:26.409Z,28.94
2023-05-09T06:18:38.121Z,29.65
2023-05-09T06:23:56.985Z,29.95
2023-05-09T06:29:04.835Z,30.56
2023-05-09T06:34:08.105Z,30.91
2023-05-09T06:39:11.010Z,31.17
2023-05-09T06:44:13.878Z,30.90
2023-05-09T06:49:16.689Z,30.80
2023-05-09T06:54:19.655Z,30.52
2023-05-09T06:59:22.567Z,30.09
2023-05-09T07:04:25.386Z,29.61
2023-05-09T07:09:31.070Z,29.91
2023-05-09T07:14:33.850Z,30.13
2023-05-09T07:19:36.637Z,30.57
2023-05-09T07:24:39.553Z,31.22
2023-05-09T07:29:42.406Z,31.54
2023-05-09T07:34:45.722Z,31.36
2023-05-09T07:39:48.688Z,30.87
2023-05-09T07:44:51.616Z,30.42
2023-05-09T07:49:54.338Z,29.93
2023-05-09T07:54:57.287Z,29.36
2023-05-09T08:00:00.046Z,29.54
2023-05-09T08:05:03.740Z,29.34
2023-05-09T08:10:07.300Z,28.88
2023-05-09T08:15:10.553Z,28.61
2023-05-09T08:20:13.718Z,28.86
2023-05-09T08:25:18.624Z,28.40
2023-05-09T08:30:21.528Z,27.89
2023-05-09T08:35:25.067Z,27.57
2023-05-09T08:40:27.857Z,27.69
2023-05-09T08:45:31.260Z,27.80
2023-05-09T08:50:35.914Z,27.88
2023-05-09T08:55:39.113Z,28.52
2023-05-09T09:00:42.196Z,28.30
2023-05-09T09:05:45.737Z,27.24
2023-05-09T09:10:48.776Z,28.41
2023-05-09T09:15:53.790Z,29.68
2023-05-09T09:21:07.009Z,30.02
2023-05-09T09:26:10.044Z,30.44
2023-05-09T09:31:44.765Z,31.08
2023-05-09T09:36:48.812Z,31.05
2023-05-09T09:41:51.679Z,30.21
2023-05-09T09:46:56.248Z,30.14
2023-05-09T09:51:59.722Z,30.28
2023-05-09T09:57:03.119Z,30.33
2023-05-09T10:02:09.974Z,30.37
2023-05-09T10:07:15.122Z,30.57
2023-05-09T10:12:20.593Z,30.97
2023-05-09T10:17:24.027Z,31.06
2023-05-09T10:22:27.060Z,31.58
2023-05-09T10:27:32.699Z,32.07
2023-05-09T10:32:52.887Z,33.35
2023-05-09T10:37:59.339Z,33.05
2023-05-09T10:43:02.193Z,32.30
2023-05-09T10:48:09.238Z,31.45
2023-05-09T10:53:14.532Z,31.67
2023-05-09T10:58:29.347Z,31.40
2023-05-09T11:03:53.975Z,30.63
2023-05-09T11:08:56.823Z,31.37
2023-05-09T11:13:59.590Z,32.40
2023-05-09T11:19:02.536Z,33.30
2023-05-09T11:24:17.533Z,34.96
2023-05-09T11:29:20.339Z,36.50
2023-05-09T11:34:23.197Z,37.05
2023-05-09T11:39:26.165Z,36.90
2023-05-09T11:44:31.248Z,37.22
2023-05-09T11:49:34.064Z,37.14
2023-05-09T11:54:39.629Z,37.16
2023-05-09T11:59:42.485Z,36.86
2023-05-09T12:04:45.247Z,36.66
2023-05-09T12:09:50.149Z,35.87
2023-05-09T12:14:53.719Z,35.39
2023-05-09T12:20:00.276Z,35.03
2023-05-09T12:25:07.720Z,34.44
2023-05-09T12:30:11.192Z,34.85
2023-05-09T12:35:14.381Z,34.33
2023-05-09T12:40:17.475Z,33.25
2023-05-09T12:45:20.676Z,33.95
2023-05-09T12:50:23.473Z,34.70
2023-05-09T12:55:26.226Z,35.62
2023-05-09T13:00:29.358Z,36.52
2023-05-09T13:05:32.613Z,35.87
2023-05-09T13:10:35.704Z,36.20
2023-05-09T13:15:38.583Z,37.75
2023-05-09T13:20:41.455Z,38.77
2023-05-09T13:25:44.649Z,40.19
2023-05-09T13:30:47.620Z,40.22
2023-05-09T13:35:51.347Z,40.55
2023-05-09T13:40:54.256Z,40.21
2023-05-09T13:45:57.164Z,39.29
2023-05-09T13:51:01.623Z,38.94
2023-05-09T13:56:04.656Z,39.04
2023-05-09T14:01:07.949Z,40.38
2023-05-09T14:06:12.978Z,40.65
2023-05-09T14:11:16.985Z,41.68
2023-05-09T14:16:21.496Z,42.07
2023-05-09T14:21:24.294Z,43.19
2023-05-09T14:26:27.266Z,42.65
2023-05-09T14:31:30.185Z,42.52
2023-05-09T14:36:33.474Z,42.80
2023-05-09T14:41:36.672Z,42.82
2023-05-09T14:46:39.541Z,43.34
2023-05-09T14:51:42.386Z,43.52
2023-05-09T14:56:45.372Z,43.66
2023-05-09T15:01:48.757Z,43.82
2023-05-09T15:06:51.514Z,45.03
2023-05-09T15:11:55.302Z,45.75
2023-05-09T15:17:01.669Z,46.00
2023-05-09T15:22:05.241Z,46.61
2023-05-09T15:27:08.118Z,45.45
2023-05-09T15:32:11.266Z,43.33
2023-05-09T15:37:14.240Z,42.22
2023-05-09T15:42:17.062Z,41.66
2023-05-09T15:47:20.031Z,42.14
2023-05-09T15:52:22.719Z,42.17
2023-05-09T15:57:26.024Z,42.75
2023-05-09T16:02:29.452Z,43.07
2023-05-09T16:07:33.989Z,42.50
2023-05-09T16:12:38.310Z,42.91
2023-05-09T16:17:41.639Z,43.18
2023-05-09T16:22:44.569Z,44.02
2023-05-09T16:27:47.356Z,44.19
2023-05-09T16:32:50.239Z,44.25
2023-05-09T16:37:53.042Z,44.22
2023-05-09T16:42:56.160Z,44.83
2023-05-09T16:48:00.750Z,45.39
2023-05-09T16:53:05.198Z,45.10
2023-05-09T16:58:08.217Z,45.21
2023-05-09T17:03:11.174Z,45.80
2023-05-09T17:08:13.980Z,45.88
2023-05-09T17:13:16.782Z,45.59
2023-05-09T17:18:33.060Z,45.06
2023-05-09T17:23:39.302Z,45.87
2023-05-09T17:28:42.034Z,46.34
2023-05-09T17:33:44.818Z,46.00
2023-05-09T17:38:47.717Z,45.94
2023-05-09T17:43:52.356Z,46.37
2023-05-09T17:48:55.468Z,45.97
2023-05-09T17:53:58.368Z,46.69
2023-05-09T17:59:01.163Z,47.07
2023-05-09T18:04:04.078Z,46.61
2023-05-09T18:09:07.428Z,46.84
2023-05-09T18:14:10.253Z,47.17
2023-05-09T18:19:13.250Z,47.30
2023-05-09T18:24:16.990Z,47.50
2023-05-09T18:29:20.030Z,47.42
2023-05-09T18:34:22.886Z,47.42
2023-05-09T18:39:26.119Z,47.30
2023-05-09T18:44:30.297Z,46.35
2023-05-09T18:49:33.108Z,46.12
2023-05-09T18:54:38.596Z,46.70
2023-05-09T18:59:41.373Z,46.33
2023-05-09T19:04:46.497Z,46.99
2023-05-09T19:09:49.814Z,47.08
2023-05-09T19:14:52.688Z,46.65
2023-05-09T19:19:55.609Z,46.98
2023-05-09T19:24:59.272Z,47.43
2023-05-09T19:30:02.195Z,47.27
2023-05-09T19:35:06.146Z,47.77
2023-05-09T19:40:09.702Z,48.09
2023-05-09T19:45:12.784Z,48.32
2023-05-09T19:50:22.240Z,48.74
2023-05-09T19:55:25.117Z,49.27
2023-05-09T20:00:28.347Z,49.72
2023-05-09T20:05:32.849Z,50.06
2023-05-09T20:10:35.839Z,50.59
2023-05-09T20:15:39.128Z,50.64
2023-05-09T20:20:42.657Z,50.99
2023-05-09T20:25:45.440Z,51.25
2023-05-09T20:30:48.896Z,50.98
2023-05-09T20:35:51.749Z,51.85
2023-05-09T20:40:54.523Z,52.01
2023-05-09T20:45:57.534Z,52.91
2023-05-09T20:51:00.771Z,52.88
2023-05-09T20:56:03.945Z,52.60
2023-05-09T21:01:06.990Z,53.12
2023-05-09T21:06:09.873Z,53.69
2023-05-09T21:11:12.758Z,53.65
2023-05-09T21:16:15.552Z,54.05
2023-05-09T21:21:18.578Z,54.24
2023-05-09T21:26:23.435Z,54.59
2023-05-09T21:31:27.054Z,54.37
2023-05-09T21:36:29.972Z,54.88
2023-05-09T21:41:32.838Z,54.79
2023-05-09T21:46:36.226Z,55.42
2023-05-09T21:51:39.279Z,55.35
2023-05-09T21:56:43.009Z,55.32
2023-05-09T22:01:46.759Z,55.87
2023-05-09T22:06:49.650Z,55.57
2023-05-09T22:11:53.404Z,55.33
2023-05-09T22:16:56.280Z,55.54
2023-05-09T22:21:59.484Z,55.59
2023-05-09T22:27:02.509Z,55.19
2023-05-09T22:32:08.005Z,55.47
2023-05-09T22:37:11.095Z,54.74
2023-05-09T22:42:13.908Z,55.13
2023-05-09T22:47:16.970Z,54.87
2023-05-09T22:52:20.005Z,54.45
2023-05-09T22:57:24.167Z,54.38
2023-05-09T23:02:27.162Z,55.06
2023-05-09T23:07:30.133Z,55.26
2023-05-09T23:12:33.076Z,55.83
2023-05-09T23:17:35.950Z,55.83
2023-05-09T23:22:38.950Z,56.47
2023-05-09T23:27:42.445Z,57.07
2023-05-09T23:32:45.339Z,56.43
2023-05-09T23:37:48.167Z,57.10
2023-05-09T23:42:51.076Z,56.01
2023-05-09T23:47:54.178Z,53.21
2023-05-09T23:52:57.000Z,51.37
2023-05-09T23:58:01.016Z,50.65
